Time;durP1;ratioP1;P1;durP2;ratioP2;P2;SDS_P1;SDS_P2;PMS_P1;PMS_P2;Temp;Humidity;BMP_temperature;BMP_pressure;BME280_temperature;BME280_humidity;BME280_pressure;Samples;Min_cycle;Max_cycle;Signal;HPM_P1;HPM_P2
2021/07/10 00:00:10;;;;;;;19.40;12.27;;;16.40;99.90;;;;;;5091059;28;20378;-57
2021/07/10 00:02:35;;;;;;;17.33;12.48;;;15.50;99.90;;;;;;5090256;28;20411;-57
2021/07/10 00:05:01;;;;;;;15.73;11.40;;;16.20;99.90;;;;;;5090875;28;20377;-56
2021/07/10 00:07:27;;;;;;;19.98;12.63;;;16.10;99.90;;;;;;5089569;28;20468;-56
2021/07/10 00:09:53;;;;;;;20.13;13.20;;;16.10;99.90;;;;;;5090316;28;20461;-56
2021/07/10 00:12:18;;;;;;;17.83;13.20;;;16.10;99.90;;;;;;5089763;28;20386;-57
2021/07/10 00:14:44;;;;;;;18.50;12.80;;;16.00;99.90;;;;;;5090427;28;20454;-56
2021/07/10 00:17:10;;;;;;;20.40;12.93;;;15.90;99.90;;;;;;5090926;28;20385;-57
2021/07/10 00:19:35;;;;;;;19.92;13.02;;;15.90;99.90;;;;;;5090037;28;20374;-57
2021/07/10 00:22:01;;;;;;;22.73;12.60;;;15.90;99.90;;;;;;5090902;28;20401;-57
2021/07/10 00:24:30;;;;;;;20.40;12.63;;;15.80;99.90;;;;;;5090518;28;20421;-57
2021/07/10 00:27:00;;;;;;;17.50;12.60;;;15.80;99.90;;;;;;5090687;28;20394;-56
2021/07/10 00:29:26;;;;;;;22.10;13.60;;;15.80;99.90;;;;;;5090248;28;20500;-57
2021/07/10 00:31:52;;;;;;;21.67;14.30;;;15.70;99.90;;;;;;5089680;28;20385;-57
2021/07/10 00:34:18;;;;;;;21.83;14.35;;;15.60;99.90;;;;;;5089079;28;20722;-57
2021/07/10 00:36:43;;;;;;;22.25;13.40;;;15.70;99.90;;;;;;5090138;28;20390;-57
2021/07/10 00:39:09;;;;;;;20.77;14.45;;;15.70;99.90;;;;;;5090835;28;20822;-57
2021/07/10 00:41:35;;;;;;;20.40;13.73;;;15.60;99.90;;;;;;5089695;28;20370;-57
2021/07/10 00:44:01;;;;;;;19.50;13.30;;;15.70;99.90;;;;;;5090786;28;20377;-57
2021/07/10 00:46:28;;;;;;;24.92;14.40;;;15.60;99.90;;;;;;5090377;28;20405;-57
2021/07/10 00:48:53;;;;;;;22.58;15.02;;;15.60;99.90;;;;;;5089438;28;20440;-56
2021/07/10 00:51:19;;;;;;;22.33;15.50;;;15.60;99.90;;;;;;5090548;28;20412;-57
2021/07/10 00:53:47;;;;;;;20.33;14.25;;;15.60;99.90;;;;;;5089203;28;20377;-57
2021/07/10 00:56:13;;;;;;;23.83;14.82;;;15.60;99.90;;;;;;5089868;28;20427;-56
2021/07/10 00:58:39;;;;;;;22.63;15.57;;;15.50;99.90;;;;;;5089848;28;20843;-57
2021/07/10 01:01:04;;;;;;;26.47;16.37;;;15.50;99.90;;;;;;5089925;28;20434;-57
2021/07/10 01:03:34;;;;;;;23.77;15.52;;;15.50;99.90;;;;;;5089121;28;20378;-56
2021/07/10 01:06:01;;;;;;;28.50;17.17;;;15.50;99.90;;;;;;5088744;28;20876;-57
2021/07/10 01:08:27;;;;;;;26.73;17.13;;;15.50;99.90;;;;;;5089646;28;20437;-57
2021/07/10 01:10:53;;;;;;;28.85;19.08;;;15.40;99.90;;;;;;5089351;28;20426;-57
2021/07/10 01:13:20;;;;;;;26.73;18.70;;;15.40;99.90;;;;;;5090135;28;20370;-57
2021/07/10 01:15:46;;;;;;;28.20;18.52;;;15.40;99.90;;;;;;5088778;28;20386;-57
2021/07/10 01:18:12;;;;;;;28.85;19.35;;;15.40;99.90;;;;;;5089550;28;20406;-57
2021/07/10 01:20:45;;;;;;;28.87;18.97;;;15.40;99.90;;;;;;5089327;28;20374;-57
2021/07/10 01:23:10;;;;;;;28.92;20.08;;;15.20;99.90;;;;;;5089963;28;20471;-56
2021/07/10 01:25:36;;;;;;;30.73;19.50;;;15.10;99.90;;;;;;5088884;28;20453;-56
2021/07/10 01:28:02;;;;;;;32.43;20.20;;;15.00;99.90;;;;;;5089807;28;20429;-56
2021/07/10 01:30:28;;;;;;;30.20;18.60;;;15.00;99.90;;;;;;5088438;28;20915;-57
2021/07/10 01:32:54;;;;;;;30.63;19.37;;;15.00;99.90;;;;;;5089156;28;20473;-57
2021/07/10 01:35:21;;;;;;;30.90;19.83;;;15.00;99.90;;;;;;5089800;28;20389;-57
2021/07/10 01:37:47;;;;;;;30.35;19.45;;;15.00;99.90;;;;;;5088771;28;20375;-56
2021/07/10 01:40:15;;;;;;;32.80;20.00;;;15.00;99.90;;;;;;5089371;28;20385;-56
2021/07/10 01:42:41;;;;;;;33.00;20.05;;;15.00;99.90;;;;;;5087409;28;20378;-56
2021/07/10 01:45:07;;;;;;;32.50;20.50;;;15.00;99.90;;;;;;5089350;28;20757;-57
2021/07/10 01:47:33;;;;;;;33.33;20.38;;;15.00;99.90;;;;;;5088099;28;20501;-56
2021/07/10 01:49:59;;;;;;;30.87;19.43;;;15.00;99.90;;;;;;5089392;28;20402;-57
2021/07/10 01:52:24;;;;;;;38.00;21.33;;;14.90;99.90;;;;;;5089416;28;20816;-57
2021/07/10 01:54:50;;;;;;;29.45;19.90;;;14.80;99.90;;;;;;5088536;28;20381;-57
2021/07/10 01:57:18;;;;;;;29.60;20.10;;;14.80;99.90;;;;;;5089172;28;20725;-57
2021/07/10 01:59:43;;;;;;;29.27;18.60;;;14.80;99.90;;;;;;5088526;28;20413;-57
2021/07/10 02:02:09;;;;;;;27.50;19.05;;;14.80;99.90;;;;;;5089537;28;20919;-57
2021/07/10 02:04:55;;;;;;;34.17;19.60;;;14.80;99.90;;;;;;5088486;28;20894;-57
2021/07/10 02:07:20;;;;;;;28.05;18.33;;;14.80;99.90;;;;;;5088700;28;20462;-57
2021/07/10 02:09:46;;;;;;;32.33;19.02;;;14.80;99.90;;;;;;5088360;28;20442;-57
2021/07/10 02:12:14;;;;;;;28.17;19.47;;;14.70;99.90;;;;;;5089248;28;20461;-57
2021/07/10 02:14:40;;;;;;;28.20;19.40;;;14.70;99.90;;;;;;5090238;28;20465;-57
2021/07/10 02:17:06;;;;;;;33.60;20.30;;;14.80;99.90;;;;;;5093030;28;20457;-57
2021/07/10 02:19:33;;;;;;;31.83;20.33;;;14.80;99.90;;;;;;5092999;28;20386;-57
2021/07/10 02:21:58;;;;;;;31.70;19.83;;;14.80;99.90;;;;;;5091672;28;20379;-57
2021/07/10 02:24:24;;;;;;;30.23;19.50;;;14.80;99.90;;;;;;5092955;28;20434;-57
2021/07/10 02:26:50;;;;;;;32.80;19.55;;;14.80;99.90;;;;;;5091806;28;20404;-57
2021/07/10 02:29:17;;;;;;;34.78;18.17;;;14.90;99.90;;;;;;5093462;28;20875;-57
2021/07/10 02:31:44;;;;;;;31.65;18.95;;;14.80;99.90;;;;;;5092151;28;20369;-57
2021/07/10 02:34:10;;;;;;;31.13;18.65;;;14.80;99.90;;;;;;5091321;28;20447;-57
2021/07/10 02:36:36;;;;;;;30.35;17.98;;;14.80;99.90;;;;;;5092282;28;20417;-57
2021/07/10 02:39:01;;;;;;;29.67;18.55;;;14.70;99.90;;;;;;5092694;28;20870;-57
2021/07/10 02:41:27;;;;;;;27.48;18.25;;;14.70;99.90;;;;;;5091310;28;20468;-57
2021/07/10 02:43:53;;;;;;;29.00;17.50;;;14.70;99.90;;;;;;5091363;28;20974;-57
2021/07/10 02:46:18;;;;;;;26.77;17.10;;;14.70;99.90;;;;;;5092552;28;20823;-57
2021/07/10 02:48:46;;;;;;;31.07;19.20;;;14.60;99.90;;;;;;5091651;28;20410;-57
2021/07/10 02:51:12;;;;;;;30.15;19.20;;;14.60;99.90;;;;;;5092249;28;20900;-57
2021/07/10 02:53:37;;;;;;;29.02;18.40;;;14.50;99.90;;;;;;5091363;28;20402;-56
2021/07/10 02:56:03;;;;;;;25.33;17.17;;;14.60;99.90;;;;;;5091998;28;20875;-57
2021/07/10 02:58:29;;;;;;;26.38;16.83;;;14.50;99.90;;;;;;5092621;28;20877;-57
2021/07/10 03:00:54;;;;;;;26.10;17.07;;;14.40;99.90;;;;;;5091325;28;20390;-57
2021/07/10 03:03:20;;;;;;;29.47;17.63;;;14.30;99.90;;;;;;5092184;28;20370;-57
2021/07/10 03:05:46;;;;;;;27.60;18.00;;;14.40;99.90;;;;;;5091567;28;20445;-57
2021/07/10 03:08:12;;;;;;;28.63;18.80;;;14.50;99.90;;;;;;5091898;28;20414;-56
2021/07/10 03:10:39;;;;;;;29.60;18.07;;;14.40;99.90;;;;;;5090970;28;20382;-57
2021/07/10 03:13:05;;;;;;;26.83;18.55;;;14.30;99.90;;;;;;5092393;28;20393;-57
2021/07/10 03:15:30;;;;;;;33.70;19.43;;;14.30;99.90;;;;;;5092370;28;20386;-57
2021/07/10 03:17:56;;;;;;;27.83;18.67;;;14.30;99.90;;;;;;5091532;28;20402;-57
2021/07/10 03:20:26;;;;;;;29.77;17.20;;;14.30;99.90;;;;;;5091759;28;20473;-56
2021/07/10 03:22:52;;;;;;;28.42;19.67;;;14.20;99.90;;;;;;5089918;28;20473;-57
2021/07/10 03:25:18;;;;;;;29.10;18.40;;;14.10;99.90;;;;;;5090610;28;20452;-57
2021/07/10 03:27:46;;;;;;;29.80;18.33;;;14.00;99.90;;;;;;5091098;28;20374;-57
2021/07/10 03:30:15;;;;;;;33.28;18.55;;;14.00;99.90;;;;;;5091333;28;20471;-55
2021/07/10 03:32:42;;;;;;;33.30;18.85;;;13.90;99.90;;;;;;5090152;28;20875;-56
2021/07/10 03:35:11;;;;;;;35.25;18.85;;;13.90;99.90;;;;;;5091363;28;20398;-57
2021/07/10 03:37:37;;;;;;;33.88;19.92;;;13.90;99.90;;;;;;5090958;28;20382;-56
2021/07/10 03:40:11;;;;;;;31.80;19.93;;;13.80;99.90;;;;;;5091479;28;20447;-57
2021/07/10 03:42:38;;;;;;;32.20;19.75;;;13.90;99.90;;;;;;5090828;28;20461;-56
2021/07/10 03:45:06;;;;;;;33.45;18.73;;;14.00;99.90;;;;;;5091627;28;20374;-57
2021/07/10 03:47:32;;;;;;;31.58;17.67;;;14.10;99.90;;;;;;5091153;28;20386;-57
2021/07/10 03:49:58;;;;;;;28.07;18.50;;;14.10;99.90;;;;;;5090429;28;20563;-57
2021/07/10 03:52:24;;;;;;;30.48;19.17;;;14.10;99.90;;;;;;5091361;28;20731;-60
2021/07/10 03:54:49;;;;;;;30.60;20.63;;;14.20;99.90;;;;;;5090395;28;20458;-57
2021/07/10 03:57:15;;;;;;;34.20;20.23;;;14.30;99.90;;;;;;5091158;28;20390;-57
2021/07/10 03:59:41;;;;;;;33.70;19.93;;;13.50;99.90;;;;;;5090635;28;20774;-57
2021/07/10 04:02:06;;;;;;;30.47;20.20;;;14.30;99.90;;;;;;5090961;28;20374;-56
2021/07/10 04:04:32;;;;;;;34.92;21.20;;;14.30;99.90;;;;;;5090767;28;20379;-57
2021/07/10 04:06:58;;;;;;;31.83;19.55;;;14.30;99.90;;;;;;5089979;28;21361;-57
2021/07/10 04:09:23;;;;;;;30.97;20.23;;;14.40;99.90;;;;;;5089448;28;20451;-57
2021/07/10 04:11:49;;;;;;;30.80;19.63;;;14.40;99.90;;;;;;5090200;28;20370;-57
2021/07/10 04:14:15;;;;;;;31.77;19.83;;;14.40;99.90;;;;;;5089584;28;20374;-57
2021/07/10 04:16:40;;;;;;;31.70;19.23;;;14.40;99.90;;;;;;5089724;28;20389;-56
2021/07/10 04:19:06;;;;;;;28.27;19.27;;;14.30;99.90;;;;;;5090602;28;20551;-57
2021/07/10 04:21:32;;;;;;;30.13;18.80;;;14.30;99.90;;;;;;5090633;28;20897;-57
2021/07/10 04:23:57;;;;;;;29.73;18.83;;;14.40;99.90;;;;;;5089583;28;20382;-57
2021/07/10 04:26:23;;;;;;;27.73;19.17;;;14.50;99.90;;;;;;5090940;28;20704;-57
2021/07/10 04:28:49;;;;;;;28.08;18.20;;;14.60;99.90;;;;;;5089543;28;20962;-56
2021/07/10 04:31:15;;;;;;;29.40;19.38;;;14.60;99.90;;;;;;5090628;28;20452;-57
2021/07/10 04:33:40;;;;;;;27.90;18.38;;;14.60;99.90;;;;;;5089868;28;20389;-57
2021/07/10 04:36:06;;;;;;;28.30;18.43;;;14.60;99.90;;;;;;5090070;28;20389;-57
2021/07/10 04:38:32;;;;;;;27.13;18.70;;;14.80;99.90;;;;;;5090436;28;20397;-57
2021/07/10 04:40:58;;;;;;;27.00;18.42;;;14.80;99.90;;;;;;5089772;28;20834;-61
2021/07/10 04:43:24;;;;;;;25.15;17.67;;;14.80;99.90;;;;;;5089959;28;20386;-57
2021/07/10 04:45:50;;;;;;;26.47;18.10;;;14.90;99.90;;;;;;5088140;28;20386;-59
2021/07/10 04:48:16;;;;;;;26.00;17.63;;;14.90;99.90;;;;;;5090404;28;20381;-57
2021/07/10 04:50:42;;;;;;;28.60;18.20;;;15.00;99.90;;;;;;5089478;28;20400;-57
2021/07/10 04:53:07;;;;;;;22.87;16.50;;;15.00;99.90;;;;;;5090172;28;20386;-57
2021/07/10 04:55:33;;;;;;;24.65;16.40;;;15.00;99.90;;;;;;5090204;28;20394;-57
2021/07/10 04:57:59;;;;;;;23.17;16.50;;;15.10;99.90;;;;;;5089746;28;20731;-57
2021/07/10 05:00:25;;;;;;;22.88;15.55;;;15.40;99.90;;;;;;5090139;28;20378;-57
2021/07/10 05:02:51;;;;;;;21.30;15.50;;;15.90;99.90;;;;;;5087914;28;20389;-57
2021/07/10 05:05:17;;;;;;;18.27;12.97;;;16.80;99.90;;;;;;5089781;28;20390;-56
2021/07/10 05:07:44;;;;;;;19.77;12.95;;;17.90;99.90;;;;;;5089154;28;20882;-56
2021/07/10 05:10:10;;;;;;;16.90;12.02;;;19.00;99.90;;;;;;5088427;28;20414;-58
2021/07/10 05:12:36;;;;;;;15.70;11.27;;;20.00;99.90;;;;;;5089772;28;20390;-58
2021/07/10 05:15:02;;;;;;;15.67;11.40;;;20.80;99.90;;;;;;5089374;28;20465;-57
2021/07/10 05:17:28;;;;;;;15.50;10.77;;;21.50;99.90;;;;;;5089686;28;20966;-58
2021/07/10 05:19:53;;;;;;;15.37;10.60;;;21.90;99.90;;;;;;5089059;28;20473;-58
2021/07/10 05:22:19;;;;;;;14.98;9.68;;;22.40;99.90;;;;;;5089653;28;20380;-59
2021/07/10 05:24:45;;;;;;;15.15;10.60;;;22.90;99.90;;;;;;5089053;28;20374;-56
2021/07/10 05:27:10;;;;;;;16.92;10.48;;;23.40;99.90;;;;;;5089419;28;20461;-56
2021/07/10 05:29:36;;;;;;;15.30;10.55;;;24.20;99.90;;;;;;5089313;28;20402;-56
2021/07/10 05:32:04;;;;;;;14.67;10.13;;;24.80;99.90;;;;;;5089702;28;20386;-56
2021/07/10 05:34:29;;;;;;;14.63;10.00;;;25.10;99.90;;;;;;5089421;28;20905;-56
2021/07/10 05:36:55;;;;;;;12.45;9.57;;;25.00;99.90;;;;;;5089014;28;20393;-56
2021/07/10 05:39:21;;;;;;;13.95;10.48;;;25.40;99.90;;;;;;5089708;28;20378;-56
2021/07/10 05:41:47;;;;;;;15.18;10.68;;;25.00;99.90;;;;;;5088977;28;20866;-56
2021/07/10 05:44:12;;;;;;;14.10;9.27;;;25.20;99.90;;;;;;5088976;28;20390;-58
2021/07/10 05:46:38;;;;;;;13.47;9.90;;;25.10;99.90;;;;;;5088163;28;20374;-56
2021/07/10 05:49:04;;;;;;;12.83;10.00;;;24.50;99.90;;;;;;5091241;28;20402;-57
2021/07/10 05:51:30;;;;;;;12.93;9.90;;;24.50;99.90;;;;;;5083532;28;20398;-56
2021/07/10 05:53:56;;;;;;;12.82;10.00;;;24.60;99.90;;;;;;5092769;28;20970;-56
2021/07/10 05:56:21;;;;;;;12.30;9.50;;;24.20;99.90;;;;;;5092698;28;21266;-56
2021/07/10 05:58:47;;;;;;;12.13;9.23;;;24.20;99.90;;;;;;5092885;28;20397;-56
2021/07/10 06:01:13;;;;;;;13.20;9.80;;;24.80;99.90;;;;;;5092808;28;20382;-56
2021/07/10 06:03:39;;;;;;;13.80;9.60;;;24.70;99.90;;;;;;5092332;28;20386;-56
2021/07/10 06:06:04;;;;;;;13.30;9.10;;;25.30;99.90;;;;;;5092503;28;20394;-58
2021/07/10 06:08:30;;;;;;;13.60;9.60;;;25.60;99.90;;;;;;5092380;28;20402;-58
2021/07/10 06:10:56;;;;;;;11.60;8.90;;;26.20;99.90;;;;;;5090901;28;20421;-58
2021/07/10 06:13:21;;;;;;;12.32;8.60;;;27.80;99.90;;;;;;5093012;28;20427;-58
2021/07/10 06:15:47;;;;;;;12.40;9.13;;;26.80;99.90;;;;;;5090661;28;20457;-58
2021/07/10 06:18:13;;;;;;;14.20;11.90;;;27.20;99.90;;;;;;5091220;28;20382;-58
2021/07/10 06:20:39;;;;;;;12.17;8.17;;;28.10;99.90;;;;;;5092186;28;20389;-58
2021/07/10 06:23:06;;;;;;;10.68;7.90;;;28.70;99.90;;;;;;5092462;28;20383;-56
2021/07/10 06:25:36;;;;;;;11.63;8.20;;;29.30;99.40;;;;;;5092434;28;20495;-56
2021/07/10 06:28:04;;;;;;;10.57;8.52;;;29.40;98.70;;;;;;5092316;28;20374;-56
2021/07/10 06:30:30;;;;;;;10.60;8.07;;;29.50;97.30;;;;;;5091838;28;20891;-56
2021/07/10 06:32:56;;;;;;;11.60;7.70;;;29.60;96.50;;;;;;5091392;28;20370;-56
2021/07/10 06:35:22;;;;;;;10.55;7.20;;;29.50;97.20;;;;;;5092599;28;20744;-56
2021/07/10 06:37:48;;;;;;;11.82;8.07;;;29.20;96.90;;;;;;5091114;28;20393;-56
2021/07/10 06:40:15;;;;;;;11.63;9.10;;;29.60;96.10;;;;;;5092420;28;20839;-56
2021/07/10 06:42:41;;;;;;;11.40;7.50;;;29.60;95.30;;;;;;5091084;28;20385;-56
2021/07/10 06:45:10;;;;;;;10.75;8.40;;;29.10;95.40;;;;;;5092125;28;20461;-57
2021/07/10 06:47:36;;;;;;;11.30;7.60;;;29.00;96.60;;;;;;5090816;28;20416;-58
2021/07/10 06:50:05;;;;;;;10.23;7.30;;;29.00;96.10;;;;;;5091486;28;20406;-56
2021/07/10 06:52:31;;;;;;;10.13;7.40;;;29.50;95.50;;;;;;5091742;28;20387;-57
2021/07/10 06:54:56;;;;;;;11.10;7.80;;;29.30;95.00;;;;;;5091559;28;20561;-57
2021/07/10 06:57:22;;;;;;;11.00;7.70;;;29.90;94.40;;;;;;5091663;28;20378;-57
2021/07/10 06:59:48;;;;;;;11.10;7.20;;;30.00;93.30;;;;;;5090743;28;20517;-57
2021/07/10 07:02:13;;;;;;;9.65;7.30;;;30.30;93.00;;;;;;5091868;28;20488;-57
2021/07/10 07:04:39;;;;;;;10.50;8.57;;;30.60;93.20;;;;;;5090199;28;20427;-57
2021/07/10 07:07:06;;;;;;;11.05;8.70;;;31.30;90.90;;;;;;5090957;28;20451;-56
2021/07/10 07:09:31;;;;;;;10.38;7.85;;;31.10;89.70;;;;;;5090967;28;20421;-57
2021/07/10 07:11:57;;;;;;;12.23;7.90;;;30.00;90.90;;;;;;5090803;28;20992;-56
2021/07/10 07:14:22;;;;;;;9.97;7.40;;;30.20;90.90;;;;;;5091152;28;20465;-56
2021/07/10 07:16:48;;;;;;;10.30;7.03;;;31.10;90.10;;;;;;5089850;28;20371;-56
2021/07/10 07:19:14;;;;;;;8.63;6.50;;;30.80;89.90;;;;;;5090831;28;20812;-56
2021/07/10 07:21:40;;;;;;;9.20;6.95;;;30.90;89.30;;;;;;5090417;28;20378;-56
2021/07/10 07:24:06;;;;;;;12.10;8.05;;;31.40;87.60;;;;;;5089691;28;20727;-57
2021/07/10 07:26:32;;;;;;;8.98;5.78;;;31.90;83.60;;;;;;5091286;28;20394;-57
2021/07/10 07:28:58;;;;;;;8.55;5.55;;;31.50;85.50;;;;;;5091077;28;20410;-57
2021/07/10 07:31:24;;;;;;;8.60;6.40;;;31.10;84.30;;;;;;5091245;28;20516;-57
2021/07/10 07:33:50;;;;;;;8.25;6.20;;;31.40;83.20;;;;;;5090580;28;20388;-57
2021/07/10 07:36:15;;;;;;;11.23;6.70;;;31.30;81.40;;;;;;5091069;28;20428;-57
2021/07/10 07:38:41;;;;;;;8.80;6.32;;;31.50;82.80;;;;;;5090552;28;20473;-57
2021/07/10 07:41:07;;;;;;;8.33;6.07;;;31.70;81.10;;;;;;5089823;28;20378;-57
2021/07/10 07:43:33;;;;;;;9.32;5.75;;;32.00;76.90;;;;;;5091046;28;20485;-57
2021/07/10 07:46:00;;;;;;;8.70;5.68;;;31.70;74.60;;;;;;5087809;28;20435;-57
2021/07/10 07:48:25;;;;;;;9.55;5.70;;;31.60;76.30;;;;;;5089419;28;20386;-57
2021/07/10 07:50:51;;;;;;;7.90;5.07;;;31.90;76.70;;;;;;5090263;28;20374;-57
2021/07/10 07:53:18;;;;;;;9.13;5.40;;;32.50;72.70;;;;;;5089593;28;20464;-57
2021/07/10 07:55:48;;;;;;;8.00;5.00;;;31.90;73.20;;;;;;5089800;28;20378;-57
2021/07/10 07:58:14;;;;;;;8.50;5.47;;;32.50;72.60;;;;;;5090702;28;20386;-53
2021/07/10 08:00:39;;;;;;;8.20;5.10;;;32.30;72.30;;;;;;5088510;28;20390;-59
2021/07/10 08:03:05;;;;;;;10.10;5.20;;;32.50;71.70;;;;;;5095971;28;20401;-54
2021/07/10 08:05:31;;;;;;;7.60;4.70;;;32.20;71.40;;;;;;5095564;28;20507;-54
2021/07/10 08:07:57;;;;;;;7.32;4.93;;;32.20;70.70;;;;;;5101495;28;20386;-54
2021/07/10 08:10:23;;;;;;;8.70;5.60;;;31.90;71.60;;;;;;5100878;28;20404;-54
2021/07/10 08:12:53;;;;;;;7.28;5.00;;;31.40;71.20;;;;;;5093667;28;20427;-54
2021/07/10 08:15:21;;;;;;;8.20;4.97;;;31.60;71.40;;;;;;5094732;28;20392;-54
2021/07/10 08:17:48;;;;;;;7.20;4.90;;;31.60;71.40;;;;;;5095687;28;20380;-54
2021/07/10 08:20:18;;;;;;;7.70;5.00;;;31.70;69.50;;;;;;5099631;28;20386;-54
2021/07/10 08:22:46;;;;;;;7.57;4.93;;;31.40;72.90;;;;;;5104172;28;20489;-54
2021/07/10 08:25:13;;;;;;;8.48;5.30;;;30.60;71.90;;;;;;5091942;28;20389;-54
2021/07/10 08:27:40;;;;;;;9.00;8.10;;;29.90;74.20;;;;;;5094606;28;20418;-60
2021/07/10 08:30:08;;;;;;;8.00;4.93;;;29.70;74.40;;;;;;5090420;28;20405;-54
2021/07/10 08:32:34;;;;;;;8.77;4.80;;;30.10;74.80;;;;;;5098078;28;20374;-54
2021/07/10 08:35:00;;;;;;;8.00;5.00;;;29.90;75.00;;;;;;5086766;28;20388;-55
2021/07/10 08:37:25;;;;;;;8.82;6.95;;;30.10;72.50;;;;;;5089778;28;20473;-54
2021/07/10 08:39:51;;;;;;;6.90;4.40;;;30.80;73.30;;;;;;5090748;28;20410;-54
2021/07/10 08:42:17;;;;;;;8.63;5.45;;;31.70;69.50;;;;;;5100564;28;20384;-54
2021/07/10 08:44:50;;;;;;;7.60;6.20;;;33.30;64.70;;;;;;5094154;28;20400;-54
2021/07/10 08:47:17;;;;;;;7.90;4.85;;;34.30;62.10;;;;;;5091509;27;20390;-57
2021/07/10 08:49:43;;;;;;;8.20;5.15;;;34.70;61.60;;;;;;5072176;28;20406;-55
2021/07/10 08:52:10;;;;;;;8.60;5.43;;;34.40;60.80;;;;;;5089265;28;20414;-54
2021/07/10 08:54:36;;;;;;;7.90;4.90;;;34.10;59.40;;;;;;5085774;28;20512;-55
2021/07/10 08:57:04;;;;;;;7.70;4.97;;;33.70;61.50;;;;;;5088557;28;20378;-56
2021/07/10 08:59:29;;;;;;;7.10;4.70;;;33.90;62.20;;;;;;5089052;28;20494;-54
2021/07/10 09:01:55;;;;;;;7.63;4.77;;;33.60;60.30;;;;;;5089135;28;20913;-54
2021/07/10 09:04:22;;;;;;;8.50;4.68;;;33.00;60.30;;;;;;5089572;28;20381;-54
2021/07/10 09:06:48;;;;;;;7.07;4.30;;;32.80;61.30;;;;;;5088821;28;20473;-54
2021/07/10 09:09:13;;;;;;;8.68;5.15;;;33.00;62.80;;;;;;5089500;28;20882;-54
2021/07/10 09:11:40;;;;;;;8.30;5.90;;;32.60;64.90;;;;;;5089453;28;20772;-61
2021/07/10 09:14:06;;;;;;;8.30;5.30;;;32.80;65.10;;;;;;5089545;28;20375;-54
2021/07/10 09:16:33;;;;;;;6.90;4.00;;;33.40;63.00;;;;;;5089784;28;20403;-55
2021/07/10 09:19:07;;;;;;;7.20;4.60;;;33.50;58.70;;;;;;5088707;28;20378;-54
2021/07/10 09:21:41;;;;;;;7.60;5.20;;;33.30;62.40;;;;;;5089547;28;20427;-55
2021/07/10 09:24:16;;;;;;;8.73;5.32;;;33.90;62.50;;;;;;5088188;28;20386;-54
2021/07/10 09:26:53;;;;;;;8.90;6.20;;;34.80;58.90;;;;;;5086819;28;20519;-61
2021/07/10 09:29:24;;;;;;;8.68;5.30;;;35.00;59.00;;;;;;5086469;28;20504;-54
2021/07/10 09:32:04;;;;;;;6.97;4.63;;;34.70;58.10;;;;;;5087340;28;20394;-57
2021/07/10 09:34:40;;;;;;;7.40;5.00;;;34.50;59.60;;;;;;5089039;28;20398;-56
2021/07/10 09:37:12;;;;;;;7.18;4.40;;;34.50;55.80;;;;;;5088872;28;20429;-54
2021/07/10 09:39:56;;;;;;;6.80;4.40;;;34.90;54.20;;;;;;5086502;28;20394;-55
2021/07/10 09:42:47;;;;;;;7.37;5.10;;;34.50;56.20;;;;;;5087308;28;20390;-56
2021/07/10 09:45:23;;;;;;;8.27;4.90;;;34.50;57.30;;;;;;5092518;28;20432;-54
2021/07/10 09:47:49;;;;;;;7.78;5.03;;;34.60;57.90;;;;;;5092152;28;20840;-54
2021/07/10 09:50:25;;;;;;;7.87;4.97;;;34.00;57.50;;;;;;5103355;28;20442;-54
2021/07/10 09:52:51;;;;;;;7.40;4.60;;;33.40;57.30;;;;;;5087078;28;20412;-55
2021/07/10 09:55:19;;;;;;;7.70;4.87;;;33.60;58.00;;;;;;5092149;28;20887;-54
2021/07/10 09:57:45;;;;;;;9.00;7.65;;;33.40;59.50;;;;;;5090128;28;20377;-55
2021/07/10 10:00:15;;;;;;;7.25;4.80;;;33.90;59.70;;;;;;5088095;28;20413;-54
2021/07/10 10:02:45;;;;;;;7.80;4.60;;;34.10;58.00;;;;;;5094385;28;20402;-62
2021/07/10 10:05:13;;;;;;;6.60;4.68;;;34.40;57.20;;;;;;5093887;28;20410;-56
2021/07/10 10:07:50;;;;;;;7.82;4.80;;;34.80;57.30;;;;;;5088726;28;20480;-54
2021/07/10 10:10:32;;;;;;;6.30;4.10;;;34.10;54.90;;;;;;5105204;28;20419;-55
2021/07/10 10:13:07;;;;;;;7.10;4.20;;;34.50;55.10;;;;;;5096114;28;20996;-54
2021/07/10 10:15:39;;;;;;;6.88;5.00;;;35.40;54.10;;;;;;5091272;28;20449;-54
2021/07/10 10:18:06;;;;;;;6.80;4.60;;;34.90;54.20;;;;;;5105233;28;20396;-54
2021/07/10 10:20:33;;;;;;;7.07;4.70;;;34.80;54.40;;;;;;5086847;28;20876;-56
2021/07/10 10:23:00;;;;;;;7.85;4.85;;;34.70;54.30;;;;;;5087937;28;20928;-56
2021/07/10 10:25:26;;;;;;;6.93;5.05;;;34.40;55.50;;;;;;5088528;28;20377;-56
2021/07/10 10:27:53;;;;;;;7.80;5.10;;;34.30;56.40;;;;;;5086951;28;20396;-55
2021/07/10 10:30:20;;;;;;;7.65;5.40;;;34.40;57.20;;;;;;5088159;28;20406;-55
2021/07/10 10:32:47;;;;;;;7.80;5.00;;;34.30;56.10;;;;;;5082393;28;20864;-56
2021/07/10 10:35:13;;;;;;;7.30;5.70;;;34.40;56.70;;;;;;5089989;28;20463;-55
2021/07/10 10:37:39;;;;;;;7.90;5.00;;;34.40;56.50;;;;;;5092075;28;20484;-53
2021/07/10 10:40:08;;;;;;;7.43;5.25;;;33.70;56.40;;;;;;5091739;28;20491;-54
2021/07/10 10:42:34;;;;;;;8.10;6.87;;;33.10;58.00;;;;;;5091682;28;20382;-53
2021/07/10 10:45:02;;;;;;;8.50;7.50;;;32.00;56.80;;;;;;5091322;28;20381;-53
2021/07/10 10:47:42;;;;;;;8.73;7.10;;;31.00;58.00;;;;;;5089807;28;20472;-54
2021/07/10 10:50:23;;;;;;;8.00;6.80;;;30.60;62.70;;;;;;5091377;28;20398;-54
2021/07/10 10:52:50;;;;;;;8.93;7.43;;;30.40;66.00;;;;;;5091548;28;20378;-53
2021/07/10 10:55:33;;;;;;;8.10;7.03;;;29.90;63.60;;;;;;5091676;28;20921;-54
2021/07/10 10:58:18;;;;;;;7.30;4.43;;;29.60;67.80;;;;;;5088760;28;20386;-55
2021/07/10 11:00:47;;;;;;;7.40;4.75;;;29.40;66.70;;;;;;5089582;28;20389;-60
2021/07/10 11:03:15;;;;;;;7.72;4.90;;;29.30;64.20;;;;;;5092137;28;20382;-54
2021/07/10 11:05:41;;;;;;;8.68;5.07;;;29.40;66.20;;;;;;5091350;28;20531;-61
2021/07/10 11:08:21;;;;;;;7.30;4.77;;;29.30;69.90;;;;;;5091080;28;20454;-54
2021/07/10 11:10:58;;;;;;;7.40;5.75;;;29.40;69.80;;;;;;5089903;28;20468;-54
2021/07/10 11:13:39;;;;;;;9.80;5.90;;;29.00;67.10;;;;;;5089974;28;20457;-61
2021/07/10 11:16:16;;;;;;;10.52;6.50;;;28.60;65.90;;;;;;5089796;28;20390;-55
2021/07/10 11:19:02;;;;;;;6.88;4.97;;;28.50;67.30;;;;;;5089577;28;20390;-61
2021/07/10 11:21:31;;;;;;;8.88;5.45;;;28.60;70.00;;;;;;5090642;28;20390;-56
2021/07/10 11:24:15;;;;;;;7.40;4.43;;;28.40;68.80;;;;;;5089320;28;20435;-55
2021/07/10 11:26:47;;;;;;;7.40;4.88;;;28.50;70.90;;;;;;5089999;28;20371;-61
2021/07/10 11:29:26;;;;;;;7.90;4.60;;;28.50;71.40;;;;;;5089207;28;20406;-55
2021/07/10 11:31:54;;;;;;;7.32;4.40;;;28.80;69.00;;;;;;5087283;28;20412;-55
2021/07/10 11:34:32;;;;;;;9.35;5.05;;;28.70;70.00;;;;;;5091460;28;20386;-54
2021/07/10 11:36:59;;;;;;;6.57;4.43;;;28.80;70.40;;;;;;5088906;28;20932;-55
2021/07/10 11:39:24;;;;;;;7.72;4.18;;;28.80;66.60;;;;;;5091062;28;20420;-55
2021/07/10 11:41:53;;;;;;;7.10;4.70;;;28.50;67.70;;;;;;5090137;28;20776;-55
2021/07/10 11:44:22;;;;;;;6.80;4.00;;;28.70;68.90;;;;;;5090109;28;20397;-54
2021/07/10 11:46:56;;;;;;;7.53;4.55;;;29.00;66.60;;;;;;5088786;28;20485;-55
2021/07/10 11:49:40;;;;;;;7.05;5.05;;;28.70;68.50;;;;;;5089570;28;20887;-56
2021/07/10 11:52:16;;;;;;;6.75;4.20;;;28.40;69.10;;;;;;5087973;28;20386;-55
2021/07/10 11:54:48;;;;;;;6.90;4.40;;;28.00;68.50;;;;;;5090283;28;20459;-61
2021/07/10 11:57:14;;;;;;;6.88;4.50;;;27.80;66.50;;;;;;5086983;28;20386;-55
2021/07/10 11:59:41;;;;;;;6.55;4.68;;;27.80;68.20;;;;;;5090670;28;20382;-58
2021/07/10 12:02:22;;;;;;;6.95;4.18;;;27.70;69.20;;;;;;5090260;28;20868;-56
2021/07/10 12:05:08;;;;;;;6.70;4.30;;;28.00;72.30;;;;;;5113034;27;20758;-55
2021/07/10 12:07:41;;;;;;;6.63;3.65;;;28.00;69.40;;;;;;5090119;28;20394;-54
2021/07/10 12:10:10;;;;;;;7.05;3.90;;;28.40;68.30;;;;;;5089614;28;20899;-55
2021/07/10 12:12:55;;;;;;;6.97;3.70;;;28.00;67.20;;;;;;5091198;28;20378;-54
2021/07/10 12:15:26;;;;;;;6.68;3.60;;;28.20;66.00;;;;;;5090500;28;20381;-55
2021/07/10 12:17:55;;;;;;;7.68;3.70;;;28.40;65.20;;;;;;5089909;28;20374;-54
2021/07/10 12:21:00;;;;;;;6.90;3.85;;;28.60;66.30;;;;;;5089303;28;20393;-59
2021/07/10 12:23:31;;;;;;;8.20;3.60;;;28.20;65.70;;;;;;5089646;28;20379;-58
2021/07/10 12:26:06;;;;;;;6.10;3.40;;;28.20;65.20;;;;;;5089835;28;20389;-59
2021/07/10 12:28:35;;;;;;;6.30;3.30;;;28.20;67.50;;;;;;5086462;28;20382;-59
2021/07/10 12:31:33;;;;;;;5.60;3.50;;;28.20;63.20;;;;;;5089087;28;20640;-59
2021/07/10 12:34:18;;;;;;;6.60;3.40;;;28.30;64.30;;;;;;5089366;28;20390;-59
2021/07/10 12:36:46;;;;;;;8.60;3.33;;;28.40;64.50;;;;;;5089742;28;20386;-59
2021/07/10 12:39:24;;;;;;;6.63;3.28;;;28.40;63.80;;;;;;5090427;28;20466;-59